KMEI/MEI METAR and TAF weather

Enter ICAO airport designator
Station Type Date Time Source
KMEI METAR 2019/06/26 15:58 UTC NOAA

KMEI 261558Z 00000KT 10SM CLR 29/20 A3020 RMK AO2 SLP223 T02940200


Station Type Date Time Source
KMEI Decoded METAR 2019/06/26 15:58 UTC NOAA

MERIDIAN KEY FIELD, MS, United States (KMEI) 32-20N 088-45W 89M
Jun 26, 2019 - 11:58 AM EDT / 2019.06.26 1558 UTC
Wind: Calm:0
Visibility: 10 mile(s):0
Sky conditions: clear
Temperature: 84.9 F (29.4 C)
Dew Point: 68.0 F (20.0 C)
Relative Humidity: 57%
Pressure (altimeter): 30.2 in. Hg (1022 hPa)
ob: KMEI 261558Z 00000KT 10SM CLR 29/20 A3020 RMK AO2 SLP223 T02940200
cycle: 16

Station Type Date Time Source
KMEI TAF 2019/06/26 12:24 UTC NOAA

TAF KMEI 261122Z 2612/2712 27006KT P6SM SCT040 BKN150

Example: see airport list